createdAt,value
2023-04-30T00:01:10.081Z,6.00
2023-04-30T00:03:37.236Z,5.87
2023-04-30T00:06:04.224Z,6.73
2023-04-30T00:08:31.279Z,6.20
2023-04-30T00:10:58.328Z,7.03
2023-04-30T00:13:25.547Z,5.80
2023-04-30T00:15:52.524Z,5.73
2023-04-30T00:18:19.434Z,5.80
2023-04-30T00:20:46.331Z,6.17
2023-04-30T00:23:13.311Z,6.60
2023-04-30T00:25:40.371Z,6.80
2023-04-30T00:28:07.236Z,6.87
2023-04-30T00:30:34.123Z,5.73
2023-04-30T00:33:01.050Z,6.60
2023-04-30T00:35:27.953Z,6.60
2023-04-30T00:37:54.773Z,6.57
2023-04-30T00:40:21.718Z,6.60
2023-04-30T00:42:48.990Z,6.77
2023-04-30T00:45:18.284Z,6.53
2023-04-30T00:47:45.302Z,6.53
2023-04-30T00:50:16.201Z,6.33
2023-04-30T00:52:44.862Z,6.40
2023-04-30T00:55:13.179Z,6.57
2023-04-30T00:57:43.976Z,6.87
2023-04-30T01:00:11.645Z,6.77
2023-04-30T01:02:39.151Z,7.20
2023-04-30T01:05:07.543Z,6.70
2023-04-30T01:07:45.329Z,6.70
2023-04-30T01:10:14.717Z,6.87
2023-04-30T01:12:52.279Z,6.27
2023-04-30T01:15:32.876Z,7.00
2023-04-30T01:18:09.453Z,7.47
2023-04-30T01:20:39.586Z,7.63
2023-04-30T01:23:28.125Z,7.30
2023-04-30T01:26:21.680Z,6.53
2023-04-30T01:28:51.640Z,6.60
2023-04-30T01:31:19.990Z,6.83
2023-04-30T01:33:47.222Z,6.70
2023-04-30T01:36:25.874Z,7.17
2023-04-30T01:39:17.596Z,7.90
2023-04-30T01:42:07.297Z,6.67
2023-04-30T01:44:46.219Z,6.70
2023-04-30T01:47:33.892Z,6.73
2023-04-30T01:50:31.805Z,6.87
2023-04-30T01:53:03.946Z,7.80
2023-04-30T01:55:57.435Z,6.50
2023-04-30T01:58:25.210Z,7.63
2023-04-30T02:00:52.506Z,7.53
2023-04-30T02:03:19.833Z,6.70
2023-04-30T02:05:47.947Z,6.93
2023-04-30T02:08:14.958Z,7.57
2023-04-30T02:10:41.969Z,7.13
2023-04-30T02:13:09.072Z,7.50
2023-04-30T02:15:36.058Z,8.00
2023-04-30T02:18:02.943Z,8.23
2023-04-30T02:20:29.890Z,7.30
2023-04-30T02:22:57.200Z,8.13
2023-04-30T02:25:24.164Z,8.00
2023-04-30T02:27:51.630Z,8.60
2023-04-30T02:30:20.380Z,9.33
2023-04-30T02:32:48.147Z,9.67
2023-04-30T02:35:15.148Z,9.33
2023-04-30T02:37:42.200Z,9.70
2023-04-30T02:40:09.645Z,11.37
2023-04-30T02:42:36.849Z,9.60
2023-04-30T02:45:03.976Z,10.93
2023-04-30T02:47:30.837Z,10.87
2023-04-30T02:49:57.790Z,9.93
2023-04-30T02:52:25.512Z,10.73
2023-04-30T02:54:57.125Z,10.37
2023-04-30T02:57:24.255Z,9.83
2023-04-30T02:59:51.267Z,10.83
2023-04-30T03:02:21.788Z,10.03
2023-04-30T03:04:48.940Z,9.90
2023-04-30T03:07:18.794Z,9.53
2023-04-30T03:09:46.951Z,9.63
2023-04-30T03:12:14.891Z,11.03
2023-04-30T03:14:42.102Z,11.00
2023-04-30T03:17:09.030Z,10.23
2023-04-30T03:19:36.094Z,11.10
2023-04-30T03:22:03.205Z,10.33
2023-04-30T03:24:30.416Z,10.33
2023-04-30T03:27:02.260Z,10.23
2023-04-30T03:29:29.340Z,10.93
2023-04-30T03:31:56.770Z,9.87
2023-04-30T03:34:23.741Z,10.63
2023-04-30T03:36:50.640Z,10.33
2023-04-30T03:39:17.581Z,10.27
2023-04-30T03:41:45.104Z,10.07
2023-04-30T03:44:16.252Z,10.23
2023-04-30T03:46:46.012Z,10.93
2023-04-30T03:49:13.204Z,10.33
2023-04-30T03:51:42.651Z,10.67
2023-04-30T03:54:09.807Z,10.37
2023-04-30T03:56:38.243Z,10.60
2023-04-30T03:59:06.530Z,9.97
2023-04-30T04:01:33.606Z,10.30
2023-04-30T04:04:02.538Z,10.63
2023-04-30T04:06:29.568Z,11.50
2023-04-30T04:08:56.622Z,11.70
2023-04-30T04:11:23.716Z,10.93
2023-04-30T04:13:50.621Z,11.00
2023-04-30T04:16:17.543Z,11.40
2023-04-30T04:18:44.809Z,11.80
2023-04-30T04:21:11.960Z,10.93
2023-04-30T04:23:38.852Z,11.83
2023-04-30T04:26:05.670Z,11.13
2023-04-30T04:28:33.015Z,11.37
2023-04-30T04:30:59.889Z,10.33
2023-04-30T04:33:26.769Z,11.40
2023-04-30T04:35:53.700Z,11.17
2023-04-30T04:38:21.021Z,11.13
2023-04-30T04:40:54.552Z,12.80
2023-04-30T04:43:22.240Z,10.60
2023-04-30T04:45:49.287Z,9.30
2023-04-30T04:48:16.264Z,8.63
2023-04-30T04:50:43.285Z,7.07
2023-04-30T04:53:10.286Z,6.00
2023-04-30T04:55:37.378Z,5.40
2023-04-30T04:58:04.533Z,5.17
2023-04-30T05:00:31.459Z,4.30
2023-04-30T05:02:58.568Z,4.20
2023-04-30T05:05:27.092Z,4.73
2023-04-30T05:07:55.339Z,4.60
2023-04-30T05:10:22.315Z,4.27
2023-04-30T05:12:49.090Z,4.17
2023-04-30T05:15:16.139Z,3.63
2023-04-30T05:17:43.161Z,4.30
2023-04-30T05:20:11.118Z,4.73
2023-04-30T05:22:38.106Z,4.60
2023-04-30T05:25:05.462Z,4.63
2023-04-30T05:27:32.347Z,3.80
2023-04-30T05:29:59.211Z,4.20
2023-04-30T05:32:28.065Z,3.87
2023-04-30T05:34:55.168Z,3.80
2023-04-30T05:37:22.942Z,3.73
2023-04-30T05:39:49.984Z,3.63
2023-04-30T05:42:17.000Z,3.40
2023-04-30T05:44:43.884Z,3.50
2023-04-30T05:47:10.780Z,3.10
2023-04-30T05:49:37.806Z,3.30
2023-04-30T05:52:05.106Z,3.23
2023-04-30T05:54:32.177Z,3.20
2023-04-30T05:56:59.283Z,3.10
2023-04-30T05:59:26.361Z,3.47
2023-04-30T06:01:53.372Z,2.80
2023-04-30T06:04:20.480Z,3.00
2023-04-30T06:06:47.531Z,2.80
2023-04-30T06:09:14.541Z,3.57
2023-04-30T06:11:42.634Z,3.00
2023-04-30T06:14:10.592Z,3.07
2023-04-30T06:16:38.301Z,3.40
2023-04-30T06:19:05.208Z,2.80
2023-04-30T06:21:32.080Z,3.03
2023-04-30T06:23:59.057Z,3.23
2023-04-30T06:26:26.620Z,2.63
2023-04-30T06:28:53.536Z,2.63
2023-04-30T06:31:23.629Z,2.63
2023-04-30T06:33:51.176Z,2.67
2023-04-30T06:36:18.773Z,2.30
2023-04-30T06:38:47.210Z,2.70
2023-04-30T06:41:15.304Z,2.80
2023-04-30T06:43:43.384Z,2.30
2023-04-30T06:46:10.755Z,2.50
2023-04-30T06:48:37.695Z,2.40
2023-04-30T06:51:04.698Z,2.40
2023-04-30T06:53:31.778Z,2.47
2023-04-30T06:55:58.842Z,2.30
2023-04-30T06:58:25.876Z,2.40
2023-04-30T07:00:53.116Z,2.40
2023-04-30T07:03:20.261Z,2.63
2023-04-30T07:05:50.517Z,2.40
2023-04-30T07:08:17.969Z,2.90
2023-04-30T07:10:45.020Z,2.63
2023-04-30T07:13:11.836Z,2.73
2023-04-30T07:15:38.788Z,2.57
2023-04-30T07:18:05.823Z,2.20
2023-04-30T07:20:32.757Z,2.60
2023-04-30T07:22:59.576Z,2.00
2023-04-30T07:25:26.451Z,1.90
2023-04-30T07:27:54.006Z,2.43
2023-04-30T07:30:21.859Z,2.53
2023-04-30T07:32:50.453Z,2.60
2023-04-30T07:35:18.178Z,2.80
2023-04-30T07:37:45.128Z,2.60
2023-04-30T07:40:22.033Z,2.37
2023-04-30T07:42:52.509Z,2.10
2023-04-30T07:45:19.391Z,2.50
2023-04-30T07:47:47.880Z,2.70
2023-04-30T07:50:15.197Z,2.50
2023-04-30T07:52:43.001Z,2.73
2023-04-30T07:55:10.614Z,1.80
2023-04-30T07:57:37.661Z,1.70
2023-04-30T08:00:05.270Z,2.20
2023-04-30T08:02:32.550Z,1.93
2023-04-30T08:04:59.679Z,2.23
2023-04-30T08:07:26.961Z,1.93
2023-04-30T08:09:54.183Z,2.23
2023-04-30T08:12:21.339Z,2.20
2023-04-30T08:14:48.298Z,2.20
2023-04-30T08:17:15.161Z,1.93
2023-04-30T08:19:42.079Z,1.90
2023-04-30T08:22:09.118Z,2.17
2023-04-30T08:24:35.966Z,2.30
2023-04-30T08:27:04.260Z,2.10
2023-04-30T08:29:31.270Z,2.07
2023-04-30T08:32:04.405Z,1.80
2023-04-30T08:34:34.784Z,2.00
2023-04-30T08:37:02.009Z,1.90
2023-04-30T08:39:28.938Z,2.00
2023-04-30T08:41:57.202Z,2.00
2023-04-30T08:44:24.365Z,2.13
2023-04-30T08:46:55.996Z,1.70
2023-04-30T08:49:24.745Z,2.10
2023-04-30T08:51:52.970Z,1.73
2023-04-30T08:54:19.876Z,1.93
2023-04-30T08:56:47.107Z,1.70
2023-04-30T08:59:14.305Z,2.00
2023-04-30T09:01:41.810Z,1.90
2023-04-30T09:04:09.090Z,2.10
2023-04-30T09:06:36.246Z,2.27
2023-04-30T09:09:13.104Z,1.90
2023-04-30T09:11:40.913Z,1.97
2023-04-30T09:14:08.696Z,2.13
2023-04-30T09:16:49.523Z,1.97
2023-04-30T09:19:30.770Z,2.30
2023-04-30T09:22:00.104Z,2.30
2023-04-30T09:24:47.579Z,2.20
2023-04-30T09:27:22.302Z,2.23
2023-04-30T09:29:49.625Z,1.90
2023-04-30T09:32:16.761Z,2.33
2023-04-30T09:34:43.922Z,2.37
2023-04-30T09:37:12.067Z,2.03
2023-04-30T09:39:59.362Z,2.37
2023-04-30T09:42:26.716Z,2.30
2023-04-30T09:44:54.096Z,2.37
2023-04-30T09:47:24.317Z,2.27
2023-04-30T09:49:52.595Z,2.10
2023-04-30T09:52:23.172Z,2.10
2023-04-30T09:54:50.276Z,2.47
2023-04-30T09:57:17.259Z,2.10
2023-04-30T09:59:46.429Z,2.03
2023-04-30T10:02:20.476Z,2.13
2023-04-30T10:04:54.605Z,2.50
2023-04-30T10:07:24.747Z,2.40
2023-04-30T10:09:59.604Z,2.80
2023-04-30T10:12:48.924Z,2.30
2023-04-30T10:15:20.475Z,2.57
2023-04-30T10:17:55.582Z,2.50
2023-04-30T10:20:24.946Z,2.23
2023-04-30T10:22:52.927Z,2.00
2023-04-30T10:25:20.373Z,2.57
2023-04-30T10:27:47.368Z,2.30
2023-04-30T10:30:15.604Z,2.17
2023-04-30T10:32:51.725Z,2.40
2023-04-30T10:35:27.843Z,2.60
2023-04-30T10:38:13.950Z,2.70
2023-04-30T10:40:40.910Z,2.97
2023-04-30T10:43:08.032Z,2.67
2023-04-30T10:45:37.816Z,3.03
2023-04-30T10:48:07.487Z,3.00
2023-04-30T10:50:45.970Z,2.87
2023-04-30T10:53:19.154Z,3.30
2023-04-30T10:56:09.922Z,2.97
2023-04-30T10:58:40.403Z,3.03
2023-04-30T11:01:15.906Z,3.03
2023-04-30T11:04:03.645Z,3.00
2023-04-30T11:06:53.787Z,3.17
2023-04-30T11:09:45.842Z,2.90
2023-04-30T11:12:21.069Z,2.83
2023-04-30T11:14:50.170Z,3.13
2023-04-30T11:17:24.805Z,3.40
2023-04-30T11:19:54.137Z,2.93
2023-04-30T11:22:25.145Z,3.10
2023-04-30T11:24:53.347Z,3.00
2023-04-30T11:27:34.345Z,2.80
2023-04-30T11:30:03.651Z,2.80
2023-04-30T11:32:35.299Z,3.10
2023-04-30T11:35:07.183Z,2.93
2023-04-30T11:37:39.355Z,3.43
2023-04-30T11:40:08.928Z,3.30
2023-04-30T11:42:35.981Z,3.30
2023-04-30T11:45:14.214Z,3.63
2023-04-30T11:47:49.729Z,3.20
2023-04-30T11:50:19.654Z,2.80
2023-04-30T11:52:51.157Z,3.53
2023-04-30T11:55:20.507Z,3.33
2023-04-30T11:57:49.754Z,4.03
2023-04-30T12:00:18.806Z,3.30
2023-04-30T12:02:48.215Z,3.00
2023-04-30T12:05:23.270Z,3.50
2023-04-30T12:08:01.728Z,3.37
2023-04-30T12:10:28.785Z,3.33
2023-04-30T12:12:56.446Z,3.50
2023-04-30T12:15:29.364Z,3.83
2023-04-30T12:17:58.330Z,3.60
2023-04-30T12:20:32.159Z,3.70
2023-04-30T12:22:59.290Z,2.83
2023-04-30T12:25:29.194Z,3.30
2023-04-30T12:27:59.284Z,3.57
2023-04-30T12:30:27.157Z,3.57
2023-04-30T12:32:57.305Z,3.63
2023-04-30T12:35:25.391Z,3.60
2023-04-30T12:37:54.786Z,3.10
2023-04-30T12:40:27.102Z,3.73
2023-04-30T12:43:10.814Z,3.60
2023-04-30T12:45:55.771Z,3.90
2023-04-30T12:48:24.757Z,3.60
2023-04-30T12:50:56.996Z,4.10
2023-04-30T12:53:24.573Z,3.90
2023-04-30T12:56:15.612Z,3.73
2023-04-30T12:58:49.940Z,4.23
2023-04-30T13:01:21.956Z,4.13
2023-04-30T13:03:49.074Z,4.27
2023-04-30T13:06:16.610Z,4.23
2023-04-30T13:08:57.840Z,4.23
2023-04-30T13:11:27.112Z,3.70
2023-04-30T13:13:55.912Z,4.10
2023-04-30T13:16:25.224Z,3.40
2023-04-30T13:18:53.062Z,3.20
2023-04-30T13:21:20.926Z,3.73
2023-04-30T13:23:52.885Z,3.80
2023-04-30T13:26:23.785Z,3.90
2023-04-30T13:28:51.385Z,3.50
2023-04-30T13:31:18.809Z,3.47
2023-04-30T13:33:45.782Z,3.70
2023-04-30T13:36:12.649Z,3.80
2023-04-30T13:38:39.870Z,3.63
2023-04-30T13:41:07.027Z,3.40
2023-04-30T13:43:34.324Z,3.57
2023-04-30T13:46:02.141Z,3.40
2023-04-30T13:48:29.369Z,3.07
2023-04-30T13:50:56.674Z,3.50
2023-04-30T13:53:23.851Z,3.47
2023-04-30T13:55:54.337Z,3.17
2023-04-30T13:58:21.687Z,2.93
2023-04-30T14:00:48.670Z,3.10
2023-04-30T14:03:15.718Z,3.57
2023-04-30T14:05:42.813Z,4.07
2023-04-30T14:08:12.942Z,3.73
2023-04-30T14:10:39.894Z,3.30
2023-04-30T14:13:06.982Z,3.73
2023-04-30T14:15:34.338Z,3.20
2023-04-30T14:18:04.065Z,3.07
2023-04-30T14:20:31.304Z,3.33
2023-04-30T14:22:58.462Z,3.27
2023-04-30T14:25:26.206Z,3.20
2023-04-30T14:27:53.137Z,3.03
2023-04-30T14:30:20.368Z,3.47
2023-04-30T14:32:47.423Z,3.10
2023-04-30T14:35:14.397Z,3.20
2023-04-30T14:37:41.443Z,3.30
2023-04-30T14:40:09.797Z,3.27
2023-04-30T14:42:36.721Z,3.30
2023-04-30T14:45:06.983Z,3.33
2023-04-30T14:47:34.289Z,3.37
2023-04-30T14:50:02.463Z,3.20
2023-04-30T14:52:29.594Z,3.13
2023-04-30T14:54:56.810Z,2.83
2023-04-30T14:57:23.973Z,3.40
2023-04-30T14:59:53.488Z,3.20
2023-04-30T15:02:21.972Z,2.60
2023-04-30T15:04:48.826Z,3.13
2023-04-30T15:07:15.818Z,2.60
2023-04-30T15:09:44.843Z,2.90
2023-04-30T15:12:11.893Z,3.00
2023-04-30T15:14:38.845Z,3.20
2023-04-30T15:17:06.291Z,3.17
2023-04-30T15:19:33.094Z,2.63
2023-04-30T15:22:00.133Z,3.00
2023-04-30T15:24:30.069Z,2.60
2023-04-30T15:26:57.794Z,2.70
2023-04-30T15:29:25.450Z,2.80
2023-04-30T15:31:53.099Z,2.77
2023-04-30T15:34:23.334Z,2.80
2023-04-30T15:36:50.633Z,2.50
2023-04-30T15:39:18.070Z,2.77
2023-04-30T15:41:45.392Z,2.33
2023-04-30T15:44:12.432Z,2.27
2023-04-30T15:46:39.447Z,2.60
2023-04-30T15:49:06.363Z,3.13
2023-04-30T15:51:34.498Z,2.90
2023-04-30T15:54:01.965Z,2.70
2023-04-30T15:56:30.990Z,2.80
2023-04-30T15:58:58.100Z,2.97
2023-04-30T16:01:25.122Z,3.50
2023-04-30T16:03:52.334Z,3.40
2023-04-30T16:06:20.066Z,2.70
2023-04-30T16:08:47.422Z,2.80
2023-04-30T16:11:22.882Z,3.07
2023-04-30T16:13:51.755Z,2.80
2023-04-30T16:16:19.007Z,3.20
2023-04-30T16:18:46.168Z,2.93
2023-04-30T16:21:13.435Z,3.43
2023-04-30T16:23:41.473Z,2.73
2023-04-30T16:26:08.435Z,2.80
2023-04-30T16:28:36.137Z,2.57
2023-04-30T16:31:03.706Z,3.40
2023-04-30T16:33:31.075Z,2.90
2023-04-30T16:35:58.380Z,2.90
2023-04-30T16:38:25.366Z,3.10
2023-04-30T16:40:52.538Z,3.30
2023-04-30T16:43:19.409Z,3.10
2023-04-30T16:45:46.913Z,2.90
2023-04-30T16:48:13.897Z,3.10
2023-04-30T16:50:43.344Z,3.27
2023-04-30T16:53:11.114Z,3.30
2023-04-30T16:55:38.127Z,2.97
2023-04-30T16:58:05.199Z,2.80
2023-04-30T17:00:32.173Z,3.50
2023-04-30T17:02:59.288Z,3.00
2023-04-30T17:05:26.341Z,3.33
2023-04-30T17:07:53.228Z,3.10
2023-04-30T17:10:24.778Z,3.10
2023-04-30T17:12:52.559Z,3.03
2023-04-30T17:15:21.960Z,3.20
2023-04-30T17:17:49.053Z,3.57
2023-04-30T17:20:15.897Z,3.27
2023-04-30T17:22:42.969Z,3.10
2023-04-30T17:25:10.228Z,3.00
2023-04-30T17:27:37.813Z,3.63
2023-04-30T17:30:05.245Z,3.17
2023-04-30T17:32:32.151Z,3.47
2023-04-30T17:35:00.275Z,3.30
2023-04-30T17:37:27.405Z,3.00
2023-04-30T17:39:55.948Z,3.77
2023-04-30T17:42:22.929Z,3.60
2023-04-30T17:44:50.361Z,3.10
2023-04-30T17:47:18.208Z,3.50
2023-04-30T17:49:49.086Z,3.60
2023-04-30T17:52:15.994Z,3.70
2023-04-30T17:54:43.110Z,3.53
2023-04-30T17:57:09.922Z,3.40
2023-04-30T17:59:39.067Z,3.57
2023-04-30T18:02:06.137Z,3.53
2023-04-30T18:04:33.522Z,3.47
2023-04-30T18:07:00.416Z,3.73
2023-04-30T18:09:27.563Z,4.10
2023-04-30T18:11:54.659Z,3.90
2023-04-30T18:14:21.468Z,3.87
2023-04-30T18:16:48.452Z,4.00
2023-04-30T18:19:15.552Z,3.93
2023-04-30T18:21:42.522Z,3.90
2023-04-30T18:24:09.496Z,5.87
2023-04-30T18:26:39.824Z,5.77
2023-04-30T18:29:06.842Z,5.60
2023-04-30T18:31:33.763Z,6.10
2023-04-30T18:34:00.733Z,6.00
2023-04-30T18:36:28.419Z,5.93
2023-04-30T18:38:57.505Z,5.37
2023-04-30T18:41:27.830Z,5.73
2023-04-30T18:43:54.633Z,6.13
2023-04-30T18:46:23.585Z,6.40
2023-04-30T18:48:50.650Z,7.27
2023-04-30T18:51:17.524Z,6.43
2023-04-30T18:53:45.467Z,6.87
2023-04-30T18:56:12.919Z,7.43
2023-04-30T18:58:39.991Z,7.30
2023-04-30T19:01:10.934Z,7.10
2023-04-30T19:03:38.248Z,7.60
2023-04-30T19:06:05.239Z,9.50
2023-04-30T19:08:32.670Z,11.43
2023-04-30T19:10:59.632Z,13.43
2023-04-30T19:13:27.985Z,14.43
2023-04-30T19:15:55.239Z,15.17
2023-04-30T19:18:24.645Z,14.50
2023-04-30T19:21:00.265Z,15.43
2023-04-30T19:23:30.800Z,15.93
2023-04-30T19:25:59.135Z,15.13
2023-04-30T19:28:26.262Z,15.33
2023-04-30T19:30:54.989Z,16.50
2023-04-30T19:33:25.385Z,14.83
2023-04-30T19:35:57.864Z,14.40
2023-04-30T19:38:25.013Z,14.77
2023-04-30T19:40:54.508Z,15.07
2023-04-30T19:43:23.616Z,14.30
2023-04-30T19:45:54.409Z,14.93
2023-04-30T19:48:25.730Z,15.33
2023-04-30T19:50:54.212Z,15.57
2023-04-30T19:53:21.824Z,17.43
2023-04-30T19:55:49.001Z,18.30
2023-04-30T19:58:15.967Z,19.70
2023-04-30T20:00:45.474Z,20.77
2023-04-30T20:03:16.683Z,20.50
2023-04-30T20:05:45.212Z,20.27
2023-04-30T20:08:12.584Z,21.43
2023-04-30T20:10:41.263Z,19.00
2023-04-30T20:13:09.680Z,16.77
2023-04-30T20:15:37.082Z,16.77
2023-04-30T20:18:06.158Z,15.20
2023-04-30T20:20:33.562Z,18.57
2023-04-30T20:23:14.502Z,18.50
2023-04-30T20:25:48.097Z,17.97
2023-04-30T20:28:16.639Z,19.20
2023-04-30T20:30:44.381Z,21.53
2023-04-30T20:33:12.670Z,19.63
2023-04-30T20:35:45.704Z,20.13
2023-04-30T20:38:13.551Z,20.10
2023-04-30T20:40:41.302Z,19.60
2023-04-30T20:43:10.593Z,19.70
2023-04-30T20:45:39.594Z,19.87
2023-04-30T20:48:07.791Z,20.83
2023-04-30T20:50:35.412Z,21.67
2023-04-30T20:53:02.403Z,20.93
2023-04-30T20:55:29.912Z,22.87
2023-04-30T20:57:57.259Z,21.93
2023-04-30T21:00:24.510Z,21.07
2023-04-30T21:02:54.078Z,23.03
2023-04-30T21:05:21.614Z,22.70
2023-04-30T21:07:48.687Z,22.30
2023-04-30T21:10:18.394Z,22.20
2023-04-30T21:12:45.194Z,21.57
2023-04-30T21:15:13.239Z,24.37
2023-04-30T21:17:40.209Z,23.87
2023-04-30T21:20:07.859Z,24.47
2023-04-30T21:22:35.183Z,24.80
2023-04-30T21:25:01.999Z,24.83
2023-04-30T21:27:28.971Z,24.80
2023-04-30T21:29:56.201Z,25.70
2023-04-30T21:32:23.753Z,25.33
2023-04-30T21:34:50.847Z,27.27
2023-04-30T21:37:18.212Z,23.87
2023-04-30T21:39:46.176Z,24.83
2023-04-30T21:42:13.120Z,23.80
2023-04-30T21:44:40.087Z,23.40
2023-04-30T21:47:10.901Z,23.80
2023-04-30T21:49:38.004Z,24.70
2023-04-30T21:52:08.310Z,23.77
2023-04-30T21:54:35.230Z,22.60
2023-04-30T21:57:02.912Z,23.77
2023-04-30T21:59:30.084Z,24.03
2023-04-30T22:02:03.064Z,24.17
2023-04-30T22:04:33.557Z,24.20
2023-04-30T22:07:00.980Z,24.47
2023-04-30T22:09:27.840Z,24.17
2023-04-30T22:11:54.958Z,24.43
2023-04-30T22:14:22.013Z,21.97
2023-04-30T22:16:52.031Z,21.70
2023-04-30T22:19:19.153Z,23.03
2023-04-30T22:21:46.491Z,24.60
2023-04-30T22:24:14.862Z,22.97
2023-04-30T22:26:41.876Z,23.17
2023-04-30T22:29:09.205Z,21.97
2023-04-30T22:31:36.226Z,22.27
2023-04-30T22:34:03.587Z,21.90
2023-04-30T22:36:30.864Z,21.97
2023-04-30T22:38:57.831Z,22.47
2023-04-30T22:41:28.290Z,20.97
2023-04-30T22:43:55.447Z,22.63
2023-04-30T22:46:22.777Z,20.33
2023-04-30T22:48:49.834Z,21.60
2023-04-30T22:51:18.379Z,22.33
2023-04-30T22:53:48.002Z,21.70
2023-04-30T22:56:15.922Z,21.70
2023-04-30T22:58:42.986Z,21.73
2023-04-30T23:01:10.050Z,22.27
2023-04-30T23:03:38.805Z,22.20
2023-04-30T23:06:06.185Z,22.43
2023-04-30T23:08:34.054Z,21.77
2023-04-30T23:11:01.839Z,21.73
2023-04-30T23:13:28.738Z,21.07
2023-04-30T23:15:59.778Z,21.73
2023-04-30T23:18:26.964Z,22.23
2023-04-30T23:20:59.579Z,23.17
2023-04-30T23:23:27.883Z,21.00
2023-04-30T23:25:55.662Z,21.67
2023-04-30T23:28:26.262Z,21.23
2023-04-30T23:30:58.805Z,21.00
2023-04-30T23:33:26.341Z,22.47
2023-04-30T23:35:54.052Z,21.40
2023-04-30T23:38:24.225Z,20.97
2023-04-30T23:40:51.417Z,22.87
2023-04-30T23:43:18.612Z,21.07
2023-04-30T23:45:45.583Z,22.23
2023-04-30T23:48:12.811Z,23.47
2023-04-30T23:50:40.600Z,22.90
2023-04-30T23:53:08.038Z,21.70
2023-04-30T23:55:35.262Z,22.43
2023-04-30T23:58:02.334Z,20.80
